createdAt,value
2022-08-14T00:04:52.447Z,100312.09
2022-08-14T00:10:52.972Z,100314.25
2022-08-14T00:16:00.818Z,100308.38
2022-08-14T00:21:28.389Z,100282.00
2022-08-14T00:26:54.777Z,100297.03
2022-08-14T00:32:52.767Z,100293.09
2022-08-14T00:37:59.263Z,100294.63
2022-08-14T00:43:21.357Z,100292.38
2022-08-14T00:48:43.189Z,100294.88
2022-08-14T00:54:21.827Z,100282.09
2022-08-14T00:59:44.129Z,100283.56
2022-08-14T01:05:06.851Z,100273.50
2022-08-14T01:10:38.300Z,100272.31
2022-08-14T01:16:03.661Z,100261.22
2022-08-14T01:21:47.272Z,100279.16
2022-08-14T01:27:16.501Z,100257.63
2022-08-14T01:32:42.826Z,100257.88
2022-08-14T01:38:05.780Z,100266.09
2022-08-14T01:43:27.897Z,100265.81
2022-08-14T01:48:51.434Z,100264.56
2022-08-14T01:54:16.712Z,100278.94
2022-08-14T01:59:40.225Z,100277.19
2022-08-14T02:05:05.854Z,100285.06
2022-08-14T02:10:29.058Z,100285.06
2022-08-14T02:15:51.046Z,100290.09
2022-08-14T02:21:13.532Z,100280.75
2022-08-14T02:26:58.449Z,100273.13
2022-08-14T02:32:30.533Z,100260.13
2022-08-14T02:37:58.780Z,100260.19
2022-08-14T02:43:22.531Z,100247.19
2022-08-14T02:49:03.009Z,100240.50
2022-08-14T02:54:27.448Z,100254.09
2022-08-14T02:59:50.182Z,100246.06
2022-08-14T03:05:12.858Z,100244.91
2022-08-14T03:10:36.542Z,100240.72
2022-08-14T03:16:05.896Z,100231.41
2022-08-14T03:21:31.437Z,100229.63
2022-08-14T03:26:57.864Z,100228.34
2022-08-14T03:32:19.758Z,100223.75
2022-08-14T03:39:10.404Z,100224.66
2022-08-14T03:43:34.289Z,100220.16
2022-08-14T03:48:57.291Z,100217.22
2022-08-14T03:54:20.445Z,100223.19
2022-08-14T03:59:42.571Z,100217.97
2022-08-14T04:05:12.734Z,100218.84
2022-08-14T04:10:35.235Z,100217.97
2022-08-14T04:16:01.588Z,100228.94
2022-08-14T04:21:28.077Z,100229.78
2022-08-14T04:26:49.927Z,100232.94
2022-08-14T04:33:02.433Z,100247.06
2022-08-14T04:37:54.354Z,100245.22
2022-08-14T04:43:17.276Z,100244.53
2022-08-14T04:48:43.180Z,100244.44
2022-08-14T04:54:05.747Z,100252.06
2022-08-14T04:59:27.578Z,100231.88
2022-08-14T05:04:56.750Z,100248.38
2022-08-14T05:10:21.960Z,100248.66
2022-08-14T05:15:48.045Z,100231.69
2022-08-14T05:21:59.612Z,100238.34
2022-08-14T05:26:51.818Z,100241.75
2022-08-14T05:32:15.197Z,100247.00
2022-08-14T05:37:37.222Z,100233.56
2022-08-14T05:43:10.282Z,100239.44
2022-08-14T05:48:42.877Z,100242.63
2022-08-14T05:54:11.348Z,100232.06
2022-08-14T05:59:38.620Z,100228.63
2022-08-14T06:05:01.357Z,100218.16
2022-08-14T06:10:23.303Z,100229.59
2022-08-14T06:15:47.919Z,100229.81
2022-08-14T06:21:13.001Z,100216.03
2022-08-14T06:26:37.565Z,100219.59
2022-08-14T06:32:00.489Z,100224.41
2022-08-14T06:37:52.944Z,100225.66
2022-08-14T06:43:17.029Z,100234.28
2022-08-14T06:48:39.073Z,100228.38
2022-08-14T06:54:04.013Z,100234.25
2022-08-14T06:59:25.948Z,100228.47
2022-08-14T07:04:48.931Z,100229.19
2022-08-14T07:10:16.778Z,100218.41
2022-08-14T07:15:42.236Z,100220.13
2022-08-14T07:21:05.999Z,100225.59
2022-08-14T07:26:29.427Z,100228.66
2022-08-14T07:31:51.495Z,100220.31
2022-08-14T07:37:15.007Z,100226.44
2022-08-14T07:42:36.943Z,100228.44
2022-08-14T07:47:58.795Z,100212.56
2022-08-14T07:53:21.261Z,100211.78
2022-08-14T07:58:51.601Z,100212.69
2022-08-14T08:04:18.793Z,100203.19
2022-08-14T08:09:53.477Z,100205.16
2022-08-14T08:15:15.381Z,100228.25
2022-08-14T08:20:41.537Z,100220.25
2022-08-14T08:26:14.372Z,100213.78
2022-08-14T08:31:52.211Z,100219.22
2022-08-14T08:37:15.233Z,100208.47
2022-08-14T08:42:38.601Z,100216.16
2022-08-14T08:48:20.776Z,100222.63
2022-08-14T08:54:06.243Z,100199.16
2022-08-14T08:59:31.642Z,100200.50
2022-08-14T09:05:03.048Z,100201.94
2022-08-14T09:10:27.164Z,100199.69
2022-08-14T09:15:49.538Z,100199.97
2022-08-14T09:21:13.163Z,100192.53
2022-08-14T09:26:39.209Z,100192.38
2022-08-14T09:32:57.921Z,100192.00
2022-08-14T09:38:15.419Z,100188.97
2022-08-14T09:44:07.716Z,100199.88
2022-08-14T09:49:31.365Z,100206.94
2022-08-14T09:54:55.985Z,100186.59
2022-08-14T10:00:27.202Z,100176.00
2022-08-14T10:06:14.066Z,100190.69
2022-08-14T10:11:38.194Z,100159.94
2022-08-14T10:17:08.674Z,100168.09
2022-08-14T10:23:12.951Z,100161.16
2022-08-14T10:28:39.075Z,100170.38
2022-08-14T10:34:33.468Z,100161.41
2022-08-14T10:40:05.562Z,100160.47
2022-08-14T10:45:35.455Z,100150.56
2022-08-14T10:51:03.826Z,100153.38
2022-08-14T10:56:34.933Z,100142.44
2022-08-14T11:01:57.063Z,100146.63
2022-08-14T11:07:21.335Z,100155.06
2022-08-14T11:12:48.971Z,100146.03
2022-08-14T11:18:12.069Z,100130.63
2022-08-14T11:23:44.934Z,100136.78
2022-08-14T11:29:10.542Z,100125.56
2022-08-14T11:34:37.072Z,100117.06
2022-08-14T11:39:59.605Z,100101.31
2022-08-14T11:45:29.767Z,100119.28
2022-08-14T11:50:52.834Z,100115.38
2022-08-14T11:56:15.098Z,100126.22
2022-08-14T12:01:41.144Z,100113.78
2022-08-14T12:07:07.352Z,100101.97
2022-08-14T12:12:47.243Z,100104.47
2022-08-14T12:18:11.341Z,100078.47
2022-08-14T12:23:41.600Z,100080.97
2022-08-14T12:29:08.392Z,100105.81
2022-08-14T12:34:34.812Z,100106.31
2022-08-14T12:40:15.710Z,100090.22
2022-08-14T12:45:47.372Z,100091.56
2022-08-14T12:51:19.413Z,100070.53
2022-08-14T12:56:45.830Z,100069.16
2022-08-14T13:02:11.273Z,100064.03
2022-08-14T13:07:36.278Z,100053.91
2022-08-14T13:13:13.486Z,100050.53
2022-08-14T13:18:40.997Z,100017.13
2022-08-14T13:24:09.341Z,100014.31
2022-08-14T13:29:36.420Z,100010.31
2022-08-14T13:35:00.153Z,100013.47
2022-08-14T13:40:26.511Z,100022.78
2022-08-14T13:46:00.925Z,100010.34
2022-08-14T13:51:26.425Z,100024.78
2022-08-14T13:56:52.167Z,100027.25
2022-08-14T14:02:31.559Z,100013.47
2022-08-14T14:07:56.236Z,99993.63
2022-08-14T14:13:20.375Z,99985.56
2022-08-14T14:18:43.309Z,99987.59
2022-08-14T14:24:08.402Z,99980.09
2022-08-14T14:29:45.741Z,99991.81
2022-08-14T14:35:16.027Z,99977.19
2022-08-14T14:40:53.788Z,99966.53
2022-08-14T14:46:22.243Z,99978.44
2022-08-14T14:51:58.386Z,99989.47
2022-08-14T14:57:20.192Z,99976.91
2022-08-14T15:02:51.634Z,99984.53
2022-08-14T15:08:17.112Z,99993.09
2022-08-14T15:13:52.991Z,99988.25
2022-08-14T15:19:15.521Z,99996.06
2022-08-14T15:24:38.332Z,100004.59
2022-08-14T15:30:01.791Z,99988.13
2022-08-14T15:35:25.597Z,99988.06
2022-08-14T15:40:51.626Z,100005.16
2022-08-14T15:46:41.382Z,100006.41
2022-08-14T15:52:00.186Z,99999.78
2022-08-14T15:57:22.098Z,99999.03
2022-08-14T16:02:45.031Z,100004.97
2022-08-14T16:08:28.570Z,99998.53
2022-08-14T16:13:50.458Z,99993.34
2022-08-14T16:19:16.222Z,99990.03
2022-08-14T16:24:59.940Z,99993.16
2022-08-14T16:30:27.745Z,99994.34
2022-08-14T16:35:55.652Z,99985.78
2022-08-14T16:41:33.184Z,99996.91
2022-08-14T16:46:57.524Z,99982.44
2022-08-14T16:52:26.174Z,99975.00
2022-08-14T16:58:03.408Z,99958.44
2022-08-14T17:03:25.426Z,99961.59
2022-08-14T17:08:47.310Z,99954.28
2022-08-14T17:14:10.548Z,99957.44
2022-08-14T17:19:37.864Z,99976.78
2022-08-14T17:30:59.849Z,99996.03
2022-08-14T17:36:25.007Z,99989.88
2022-08-14T17:42:02.804Z,99983.19
2022-08-14T17:47:26.778Z,99980.16
2022-08-14T17:52:50.226Z,100013.69
2022-08-14T17:58:22.509Z,100013.44
2022-08-14T18:03:52.327Z,100006.66
2022-08-14T18:09:25.878Z,100046.59
2022-08-14T18:14:52.775Z,100034.16
2022-08-14T18:21:23.176Z,100067.44
2022-08-14T18:25:58.730Z,100054.81
2022-08-14T18:31:20.584Z,100055.41
2022-08-14T18:36:56.744Z,100025.53
2022-08-14T18:42:23.482Z,100017.00
2022-08-14T18:48:14.404Z,100006.53
2022-08-14T18:53:52.372Z,99996.22
2022-08-14T18:59:38.909Z,100007.72
2022-08-14T19:05:02.398Z,100002.25
2022-08-14T19:10:32.013Z,99989.69
2022-08-14T19:16:05.723Z,99993.19
2022-08-14T19:21:37.797Z,99986.38
2022-08-14T19:27:23.578Z,99976.31
2022-08-14T19:32:50.971Z,99971.44
2022-08-14T19:38:52.707Z,99971.56
2022-08-14T19:44:19.254Z,99976.81
2022-08-14T19:50:24.465Z,99970.38
2022-08-14T19:55:34.192Z,99970.34
2022-08-14T20:00:57.181Z,99970.16
2022-08-14T20:06:19.639Z,99966.69
2022-08-14T20:12:01.970Z,99952.22
2022-08-14T20:17:25.080Z,99954.25
2022-08-14T20:22:48.360Z,99946.56
2022-08-14T20:28:29.577Z,99939.88
2022-08-14T20:34:03.259Z,99936.13
2022-08-14T20:39:26.775Z,99938.06
2022-08-14T20:45:08.583Z,99940.00
2022-08-14T20:50:35.484Z,99929.88
2022-08-14T20:56:03.167Z,99951.75
2022-08-14T21:01:32.654Z,99952.22
2022-08-14T21:07:25.530Z,99951.59
2022-08-14T21:13:14.365Z,99952.66
2022-08-14T21:18:21.821Z,99965.03
2022-08-14T21:23:55.387Z,99972.91
2022-08-14T21:29:22.833Z,99986.16
2022-08-14T21:34:55.140Z,99979.03
2022-08-14T21:40:41.629Z,99971.25
2022-08-14T21:46:02.907Z,99971.38
2022-08-14T21:51:55.950Z,99967.66
2022-08-14T21:57:14.719Z,99940.28
2022-08-14T22:02:36.795Z,99938.19
2022-08-14T22:08:06.225Z,99939.13
2022-08-14T22:13:32.011Z,99939.41
2022-08-14T22:18:54.422Z,99940.13
2022-08-14T22:24:25.874Z,99926.50
2022-08-14T22:30:01.913Z,99921.03
2022-08-14T22:35:25.780Z,99919.09
2022-08-14T22:41:03.974Z,99910.06
2022-08-14T22:46:31.942Z,99927.75
2022-08-14T22:51:55.377Z,99926.13
2022-08-14T22:57:17.632Z,99924.53
2022-08-14T23:02:40.718Z,99940.00
2022-08-14T23:08:56.747Z,99942.50
2022-08-14T23:13:46.523Z,99943.06
2022-08-14T23:19:08.448Z,99942.97
2022-08-14T23:24:31.010Z,99942.84
2022-08-14T23:29:52.842Z,99939.41
2022-08-14T23:35:15.553Z,99950.00
2022-08-14T23:40:38.993Z,99939.38
2022-08-14T23:46:00.830Z,99930.09
2022-08-14T23:51:23.211Z,99938.09
2022-08-14T23:56:45.044Z,99920.06
